Kezdőlap
METAR-TAF:

METAR-TAF

Repülőterek :

Seattle-Tacoma, Washington, Amerikai Egyesült Államok

Seattle-Tacoma International Airport

földrajzi szélesség: 47-26-41N, földrajzi hosszúság: 122-18-49W, magasság: 130 m

Jelenlegi meteorológiai megfigyelések

A jelentés 1 órával és 3 perccel ezelõtt készült, 02:53 UTC
Északi szél 7 kt
Hőmérséklet 12°C
Páratartalom 54%
Légköri nyomás 1026 hPa
Látótávolság: 16.1 km
Derült ég

METAR: KSEA 230253Z 36007KT 10SM CLR 12/03 A3031 RMK AO2 SLP270 T01170033 57007

Idő: 20:56 (03:56 UTC)

Előrejelzés

A jelentés 23 perccel ezelõtt készült, 03:33 UTC
Az előrejelzés 23-én 04 óra UTC és 24-én 06 óra UTC között érvényes
Északi szél 8 kt
Látótávolság: 10 km
Derült ég
23-én 2000 órától UTC szerint
Északi szél 12 kt
Látótávolság: 10 km
Derült ég

TAF: KSEA 230333Z 2304/2406 01008KT P6SM SKC FM232000 36012KT P6SM SKC

Meteorológiai megfigyelések és előrejelzések több, mint 4000 repülőtéren (METAR és TAF jelentéseket).

A térképen piros és sárga pontok jelzik az elérhető meteorológiai állomásokat.

Mozgassa az egeret a pont fölött, hogy megjelenjen az állomás neve.

Azután kattintson az időjárási megfigyelések és előrejelzések megtekintéséhez.

A térkép megváltoztatása: kattintson a fekete keresztel jelölt zöld gombra ráközelítéshez, a vonallal jelölt zöld gombra távolításhoz, vagy a zöld nyilakra a szomszédos térképek eléréséhez.


METAR-TAF: